Gibbs, Missouri
Current Conditions -  °F | °C
As of 5:55 AM on Saturday 20 Dec 2014 (Local Time) from KIRK Reporting Station
Haze Haze  
Wind Chill: 25°   Ceiling: 300
Heat Index: 32°   Visibility: 0.75mi
Dew Point: 32°   Wind: 8mph
Humidity: 100%   Direction: 150°SSE
Pressure: 30.2"   Gusts: NA
Location:  40.1°N, 92.42°W
Report Text: KIRK 201155Z AUTO 15007KT 3/4SM BR VV003 00/00 A3020 RMK AO2 SLP239 I1000 I6000 T00000000 10000 21006 56008
Loading
Personal Weather Stations






























Interactive Weather Map New forecast layout! Learn more

10-Day Weather Forecast

Advertisements
Track Severe Weather on mobile